Time;durP1;ratioP1;P1;durP2;ratioP2;P2;SDS_P1;SDS_P2;PMS_P1;PMS_P2;Temp;Humidity;BMP_temperature;BMP_pressure;BME280_temperature;BME280_humidity;BME280_pressure;Samples;Min_cycle;Max_cycle;Signal;HPM_P1;HPM_P2
2022/10/07 00:00:14;;;;;;;8.73;3.88;;;;;;;13.67;69.17;100310.72;5152853;28;20062;-74
2022/10/07 00:03:05;;;;;;;9.18;4.05;;;;;;;13.64;69.47;100308.31;5169567;28;20057;-74
2022/10/07 00:06:18;;;;;;;11.63;4.72;;;;;;;13.67;69.32;100312.53;5155251;28;20162;-75
2022/10/07 00:09:09;;;;;;;9.35;4.55;;;;;;;13.86;69.58;100305.47;5149419;28;20057;-75
2022/10/07 00:11:59;;;;;;;21.83;5.57;;;;;;;13.83;69.96;100307.56;5150394;28;20093;-74
2022/10/07 00:14:49;;;;;;;11.75;5.10;;;;;;;13.82;69.44;100301.41;5150388;28;20050;-74
2022/10/07 00:17:40;;;;;;;11.23;5.22;;;;;;;13.88;69.09;100302.69;5169615;28;20097;-75
2022/10/07 00:20:39;;;;;;;11.23;4.90;;;;;;;13.84;70.04;100298.59;5162566;28;20539;-75
2022/10/07 00:23:29;;;;;;;15.95;4.72;;;;;;;13.83;69.94;100300.41;5151782;28;20050;-75
2022/10/07 00:26:22;;;;;;;13.13;4.78;;;;;;;13.73;69.95;100285.34;5152330;28;20130;-75
2022/10/07 00:29:12;;;;;;;11.75;4.60;;;;;;;13.81;69.85;100297.06;5172343;28;20124;-74
2022/10/07 00:32:03;;;;;;;9.65;4.72;;;;;;;13.80;69.21;100281.19;5149604;28;20051;-74
2022/10/07 00:34:53;;;;;;;13.07;4.35;;;;;;;13.80;69.41;100292.69;5147415;28;20054;-75
2022/10/07 00:37:44;;;;;;;10.02;4.53;;;;;;;13.57;69.39;100238.69;5144605;28;20761;-76
2022/10/07 00:40:35;;;;;;;12.07;4.30;;;;;;;13.80;69.62;100283.84;5159330;28;20513;-73
2022/10/07 00:43:28;;;;;;;13.50;4.70;;;;;;;13.86;69.82;100272.66;5161846;28;20128;-75
2022/10/07 00:46:25;;;;;;;10.05;4.63;;;;;;;13.68;70.39;100268.94;5160070;28;20512;-75
2022/10/07 00:49:15;;;;;;;15.80;4.93;;;;;;;13.54;70.02;100254.97;5162332;28;20084;-75
2022/10/07 00:52:05;;;;;;;8.52;4.63;;;;;;;13.69;69.97;100260.78;5162579;28;20058;-75
2022/10/07 00:55:00;;;;;;;16.88;4.90;;;;;;;13.82;69.68;100248.09;5164771;28;20054;-75
2022/10/07 00:57:54;;;;;;;10.30;5.30;;;;;;;13.76;70.21;100261.09;5148480;28;20453;-74
2022/10/07 01:00:44;;;;;;;12.60;4.90;;;;;;;13.77;69.98;100244.97;5162105;28;20544;-75
2022/10/07 01:03:36;;;;;;;15.13;4.95;;;;;;;13.70;70.66;100264.28;5158006;28;20808;-75
2022/10/07 01:06:26;;;;;;;9.18;4.65;;;;;;;13.66;70.93;100254.88;5157732;28;20409;-74
2022/10/07 01:09:16;;;;;;;12.77;5.70;;;;;;;13.76;70.05;100253.94;5150371;28;20051;-76
2022/10/07 01:12:14;;;;;;;14.63;5.00;;;;;;;13.57;69.62;100228.03;5157870;28;20432;-75
2022/10/07 01:15:30;;;;;;;10.77;4.45;;;;;;;13.76;70.03;100245.09;5150502;28;20697;-75
2022/10/07 01:18:41;;;;;;;13.00;4.95;;;;;;;13.80;69.39;100235.84;5162200;28;20144;-75
2022/10/07 01:21:45;;;;;;;16.67;6.30;;;;;;;13.76;69.33;100235.28;5151942;28;20077;-76
2022/10/07 01:24:41;;;;;;;12.07;4.72;;;;;;;13.64;69.55;100228.34;5148932;28;20111;-75
2022/10/07 01:27:33;;;;;;;12.30;4.50;;;;;;;13.90;69.02;100227.91;5145587;28;20055;-75
2022/10/07 01:30:24;;;;;;;6.78;4.15;;;;;;;13.96;68.80;100216.69;5160775;28;20196;-76
2022/10/07 01:33:19;;;;;;;12.25;4.70;;;;;;;13.80;69.15;100219.88;5152377;28;20062;-74
2022/10/07 01:36:14;;;;;;;11.15;4.97;;;;;;;13.78;69.25;100209.34;5153356;28;20117;-73
2022/10/07 01:39:10;;;;;;;14.93;4.97;;;;;;;13.74;69.30;100196.41;5162480;28;20061;-75
2022/10/07 01:42:00;;;;;;;11.35;4.50;;;;;;;13.85;69.13;100209.66;5160985;28;20176;-75
2022/10/07 01:44:54;;;;;;;11.90;4.47;;;;;;;13.68;69.85;100197.81;5154302;28;20092;-76
2022/10/07 01:47:44;;;;;;;10.63;4.77;;;;;;;13.82;69.43;100207.25;5154062;28;20188;-73
2022/10/07 01:50:36;;;;;;;10.88;5.00;;;;;;;13.80;68.81;100191.38;5155768;28;20057;-76
2022/10/07 01:53:39;;;;;;;11.02;4.20;;;;;;;13.86;69.03;100201.50;5164065;28;20057;-74
2022/10/07 01:56:45;;;;;;;9.43;4.45;;;;;;;13.96;69.04;100198.88;5150162;28;20515;-75
2022/10/07 02:00:09;;;;;;;11.80;4.80;;;;;;;13.78;69.05;100198.69;5168950;28;20057;-75
2022/10/07 02:03:30;;;;;;;12.32;4.10;;;;;;;13.72;69.58;100195.72;5142288;28;20049;-74
2022/10/07 02:06:39;;;;;;;12.75;4.50;;;;;;;13.76;69.18;100184.63;5154324;28;20053;-76
2022/10/07 02:09:56;;;;;;;10.30;4.90;;;;;;;13.65;69.17;100187.41;5157003;28;20056;-75
2022/10/07 02:12:57;;;;;;;10.57;4.60;;;;;;;13.66;68.71;100183.75;5145156;28;20129;-75
2022/10/07 02:16:04;;;;;;;13.02;4.30;;;;;;;13.74;68.69;100175.09;5150492;28;20054;-74
2022/10/07 02:18:57;;;;;;;12.98;4.38;;;;;;;13.75;68.20;100182.13;5147439;28;20046;-76
2022/10/07 02:21:51;;;;;;;12.43;4.43;;;;;;;13.54;69.21;100175.03;5152948;28;20073;-75
2022/10/07 02:24:43;;;;;;;8.77;4.40;;;;;;;13.76;68.92;100178.47;5154745;28;20057;-75
2022/10/07 02:27:36;;;;;;;11.32;4.35;;;;;;;13.49;69.07;100161.25;5148297;28;20181;-75
2022/10/07 02:30:27;;;;;;;6.68;4.22;;;;;;;13.38;69.69;100169.34;5157559;28;20096;-74
2022/10/07 02:33:21;;;;;;;11.48;4.85;;;;;;;13.33;69.43;100156.41;5157519;28;20070;-75
2022/10/07 02:36:23;;;;;;;11.02;4.90;;;;;;;13.55;69.19;100159.88;5160693;28;20077;-75
2022/10/07 02:39:14;;;;;;;16.25;4.82;;;;;;;13.43;69.62;100148.47;5155152;28;20437;-75
2022/10/07 02:42:12;;;;;;;9.80;4.72;;;;;;;13.58;68.79;100149.81;5153813;28;20056;-74
2022/10/07 02:45:20;;;;;;;9.98;4.25;;;;;;;13.47;68.84;100152.53;5163941;28;20058;-75
2022/10/07 02:48:23;;;;;;;9.90;4.90;;;;;;;13.40;69.44;100156.72;5155424;28;20419;-75
2022/10/07 02:51:18;;;;;;;10.57;4.60;;;;;;;13.40;69.67;100140.75;5163072;28;20051;-75
2022/10/07 02:54:13;;;;;;;10.38;4.53;;;;;;;13.51;69.48;100147.78;5150885;28;20074;-75
2022/10/07 02:57:04;;;;;;;10.52;4.93;;;;;;;13.50;70.00;100141.63;5159241;28;20062;-74
2022/10/07 02:59:59;;;;;;;12.45;4.85;;;;;;;13.44;69.71;100141.31;5157964;28;20050;-76
2022/10/07 03:03:01;;;;;;;11.57;5.18;;;;;;;13.59;69.72;100140.81;5150384;28;20060;-74
2022/10/07 03:06:07;;;;;;;10.32;5.15;;;;;;;13.45;69.10;100132.38;5154842;28;20112;-74
2022/10/07 03:08:59;;;;;;;14.02;5.13;;;;;;;13.26;70.58;100111.81;5160818;28;20181;-75
2022/10/07 03:11:49;;;;;;;16.52;5.65;;;;;;;13.62;69.50;100139.72;5152611;28;20121;-76
2022/10/07 03:14:39;;;;;;;23.73;12.50;;;;;;;13.62;69.23;100139.72;5148424;28;20149;-76
2022/10/07 03:17:30;;;;;;;21.02;7.15;;;;;;;13.55;70.11;100136.75;5156339;28;20073;-75
2022/10/07 03:20:21;;;;;;;12.65;5.10;;;;;;;13.66;69.72;100135.78;5142673;28;20053;-76
2022/10/07 03:23:12;;;;;;;17.88;5.55;;;;;;;13.59;69.37;100135.50;5157727;28;20649;-75
2022/10/07 03:26:03;;;;;;;12.82;4.90;;;;;;;13.65;69.46;100133.28;5154824;28;20050;-75
2022/10/07 03:28:54;;;;;;;14.70;5.50;;;;;;;13.68;69.39;100120.53;5143957;28;20077;-74
2022/10/07 03:31:44;;;;;;;8.82;5.03;;;;;;;13.61;70.00;100117.56;5159764;28;20058;-75
2022/10/07 03:34:35;;;;;;;8.30;4.15;;;;;;;13.56;69.75;100119.78;5157707;28;20136;-76
2022/10/07 03:37:25;;;;;;;11.20;3.95;;;;;;;13.67;70.48;100115.31;5150096;28;20104;-75
2022/10/07 03:40:15;;;;;;;10.75;4.80;;;;;;;13.72;69.18;100100.59;5159312;28;20112;-74
2022/10/07 03:43:06;;;;;;;10.40;4.88;;;;;;;13.62;69.38;100097.91;5161372;28;20058;-75
2022/10/07 03:45:57;;;;;;;11.45;4.88;;;;;;;13.62;69.65;100108.56;5142838;28;20058;-76
2022/10/07 03:48:47;;;;;;;13.50;5.10;;;;;;;13.64;69.12;100100.44;5166061;28;20066;-75
2022/10/07 03:51:38;;;;;;;15.30;4.93;;;;;;;13.67;69.46;100102.81;5167745;28;20053;-75
2022/10/07 03:54:30;;;;;;;10.45;5.60;;;;;;;13.69;69.55;100100.03;5154472;28;20552;-76
2022/10/07 04:00:29;;;;;;;12.13;4.85;;;;;;;13.59;70.34;100103.50;5170344;28;20057;-76
2022/10/07 04:03:20;;;;;;;13.30;4.50;;;;;;;13.59;69.50;100092.00;5152132;28;20108;-75
2022/10/07 04:06:12;;;;;;;10.93;4.85;;;;;;;13.70;69.35;100091.88;5147004;28;20502;-75
2022/10/07 04:09:02;;;;;;;10.38;4.90;;;;;;;13.60;69.55;100083.03;5140752;28;20201;-76
2022/10/07 04:11:52;;;;;;;12.60;4.85;;;;;;;13.71;69.96;100095.38;5147198;28;20051;-76
2022/10/07 04:14:42;;;;;;;9.82;4.57;;;;;;;13.71;69.67;100092.72;5163270;28;20133;-75
2022/10/07 04:17:33;;;;;;;12.60;5.03;;;;;;;13.71;69.62;100095.38;5150714;28;20054;-76
2022/10/07 04:20:23;;;;;;;11.35;4.63;;;;;;;13.70;69.59;100083.06;5142431;28;20043;-76
2022/10/07 04:23:15;;;;;;;13.30;4.35;;;;;;;13.60;69.42;100083.03;5164146;28;20113;-75
2022/10/07 04:26:10;;;;;;;8.68;4.72;;;;;;;13.63;69.99;100082.75;5161675;28;20085;-76
2022/10/07 04:29:04;;;;;;;13.57;4.90;;;;;;;13.63;70.37;100075.59;5149305;28;20193;-75
2022/10/07 04:31:57;;;;;;;9.27;4.93;;;;;;;13.62;69.77;100081.91;5146837;28;20047;-75
2022/10/07 04:34:49;;;;;;;10.27;4.45;;;;;;;13.58;69.93;100080.53;5158539;28;20058;-74
2022/10/07 04:37:40;;;;;;;12.73;4.80;;;;;;;13.59;69.81;100063.53;5151745;28;20058;-75
2022/10/07 04:40:31;;;;;;;8.00;4.63;;;;;;;13.67;69.64;100062.00;5150602;28;20053;-76
2022/10/07 04:43:22;;;;;;;18.38;5.10;;;;;;;13.70;69.91;100075.06;5141807;28;20062;-75
2022/10/07 04:46:18;;;;;;;14.88;4.90;;;;;;;13.70;69.96;100067.91;5156145;28;20619;-75
2022/10/07 04:49:13;;;;;;;9.00;4.80;;;;;;;13.75;69.59;100065.69;5168346;28;20106;-76
2022/10/07 04:52:04;;;;;;;10.95;4.28;;;;;;;13.69;69.29;100065.38;5153729;28;20430;-75
2022/10/07 04:54:58;;;;;;;14.90;4.75;;;;;;;13.54;69.81;100057.78;5159897;28;20188;-76
2022/10/07 04:57:49;;;;;;;13.80;4.78;;;;;;;13.48;69.76;100041.50;5169849;28;20057;-73
2022/10/07 05:00:48;;;;;;;12.90;4.57;;;;;;;13.59;69.81;100049.38;5149335;28;20085;-75
2022/10/07 05:03:40;;;;;;;11.10;4.28;;;;;;;13.51;70.30;100055.41;5155792;28;20090;-75
2022/10/07 05:06:32;;;;;;;17.92;5.10;;;;;;;13.61;70.24;100047.44;5166536;28;20054;-73
2022/10/07 05:09:23;;;;;;;7.82;4.25;;;;;;;13.55;70.31;100046.16;5169610;28;20058;-74
2022/10/07 05:12:16;;;;;;;11.40;4.88;;;;;;;13.52;70.12;100053.56;5157036;28;20465;-75
2022/10/07 05:15:07;;;;;;;9.32;4.63;;;;;;;13.68;69.88;100050.38;5166811;28;20054;-75
2022/10/07 05:17:58;;;;;;;14.43;4.95;;;;;;;13.65;69.73;100046.16;5170577;28;20505;-74
2022/10/07 05:20:50;;;;;;;10.32;4.88;;;;;;;13.56;69.88;100029.16;5151546;28;20055;-75
2022/10/07 05:23:40;;;;;;;11.98;5.13;;;;;;;13.69;69.87;100046.72;5167391;28;20047;-75
2022/10/07 05:26:34;;;;;;;10.30;4.80;;;;;;;13.68;69.63;100055.72;5161838;28;20050;-75
2022/10/07 05:29:26;;;;;;;12.38;4.82;;;;;;;13.49;69.92;100022.72;5154558;28;20097;-75
2022/10/07 05:32:19;;;;;;;19.20;5.00;;;;;;;13.65;69.55;100048.84;5153860;28;20046;-75
2022/10/07 05:35:09;;;;;;;15.32;5.47;;;;;;;13.63;69.95;100040.97;5160372;28;20047;-76
2022/10/07 05:38:01;;;;;;;16.30;4.88;;;;;;;13.65;69.62;100048.84;5166771;28;20054;-76
2022/10/07 05:41:00;;;;;;;19.52;5.35;;;;;;;13.72;70.30;100049.97;5166014;28;20054;-75
2022/10/07 05:43:52;;;;;;;11.85;4.80;;;;;;;13.76;70.12;100047.84;5153476;28;20069;-76
2022/10/07 05:46:42;;;;;;;12.52;4.88;;;;;;;13.81;69.67;100038.47;5164348;28;20050;-75
2022/10/07 05:49:35;;;;;;;25.92;5.55;;;;;;;13.61;70.21;100028.78;5158406;28;20137;-75
2022/10/07 05:52:26;;;;;;;14.82;5.57;;;;;;;13.70;69.53;100035.06;5157066;28;20050;-77
2022/10/07 05:55:17;;;;;;;13.63;4.80;;;;;;;13.72;69.53;100033.97;5152602;28;20046;-75
2022/10/07 05:58:08;;;;;;;10.85;5.25;;;;;;;13.69;69.72;100023.59;5143939;28;20051;-76
2022/10/07 06:00:59;;;;;;;14.85;5.70;;;;;;;13.75;69.62;100012.38;5153281;28;20054;-75
2022/10/07 06:03:56;;;;;;;10.30;4.63;;;;;;;13.83;68.99;100025.81;5145036;28;20196;-76
2022/10/07 06:06:49;;;;;;;18.83;4.87;;;;;;;13.86;69.63;100027.38;5145744;28;20490;-76
2022/10/07 06:13:07;;;;;;;14.23;4.88;;;;;;;13.88;68.87;100021.94;5153258;28;20532;-76
2022/10/07 06:16:08;;;;;;;13.73;4.75;;;;;;;13.88;69.21;100004.09;5150895;28;20058;-76
2022/10/07 06:18:59;;;;;;;18.77;5.00;;;;;;;14.08;69.39;100023.59;5150000;28;20065;-74
2022/10/07 06:21:52;;;;;;;15.35;4.75;;;;;;;14.02;68.94;100032.16;5153830;28;20065;-72
2022/10/07 06:24:44;;;;;;;11.82;4.40;;;;;;;14.19;68.79;100031.44;5153803;28;20055;-74
2022/10/07 06:27:34;;;;;;;13.45;4.55;;;;;;;14.10;68.54;100025.16;5162047;28;20105;-74
2022/10/07 06:30:26;;;;;;;13.60;4.32;;;;;;;14.14;68.59;100023.03;5146192;28;20191;-75
2022/10/07 06:33:18;;;;;;;13.85;4.30;;;;;;;14.13;68.43;100021.34;5144987;28;20077;-73
2022/10/07 06:36:11;;;;;;;17.98;5.13;;;;;;;14.18;68.37;100029.78;5155483;28;20187;-74
2022/10/07 06:39:02;;;;;;;12.60;4.50;;;;;;;14.32;68.29;100021.31;5156607;28;20057;-74
2022/10/07 06:41:59;;;;;;;10.65;4.80;;;;;;;14.37;68.25;100022.72;5154180;28;20105;-75
2022/10/07 06:45:01;;;;;;;10.50;4.57;;;;;;;14.15;68.47;100018.53;5142110;28;20514;-74
2022/10/07 06:47:52;;;;;;;14.40;4.88;;;;;;;14.49;67.52;100030.41;5150224;28;20054;-75
2022/10/07 06:50:51;;;;;;;15.50;5.03;;;;;;;14.63;67.45;100022.97;5150023;28;20508;-76
2022/10/07 06:53:43;;;;;;;15.48;5.30;;;;;;;14.74;67.39;100025.50;5145972;28;20471;-73
2022/10/07 06:56:33;;;;;;;10.18;4.90;;;;;;;14.85;67.77;100024.47;5146527;28;20457;-74
2022/10/07 06:59:23;;;;;;;13.13;4.95;;;;;;;14.89;67.03;100018.66;5143619;28;20046;-74
2022/10/07 07:02:24;;;;;;;10.70;4.55;;;;;;;15.07;67.01;100026.78;5152836;28;20813;-73
2022/10/07 07:05:15;;;;;;;11.50;4.90;;;;;;;15.11;66.81;100022.81;5171730;28;20413;-73
2022/10/07 07:08:07;;;;;;;15.27;5.55;;;;;;;15.38;66.61;100024.63;5160750;28;20055;-72
2022/10/07 07:11:34;;;;;;;14.85;5.45;;;;;;;15.60;66.27;100027.88;5154503;28;20509;-73
2022/10/07 07:14:18;;;;;;;14.88;5.72;;;;;;;15.71;65.59;100030.38;5151914;28;20061;-71
2022/10/07 07:17:15;;;;;;;15.20;5.55;;;;;;;15.75;65.34;100029.06;5154286;28;20616;-71
2022/10/07 07:20:06;;;;;;;14.40;4.95;;;;;;;15.63;65.23;100014.19;5164639;28;20042;-75
2022/10/07 07:22:57;;;;;;;12.05;5.05;;;;;;;15.60;65.63;100010.00;5156254;28;20724;-75
2022/10/07 07:25:47;;;;;;;12.15;5.50;;;;;;;15.86;65.41;100018.16;5161257;28;20047;-72
2022/10/07 07:28:38;;;;;;;15.57;5.65;;;;;;;15.85;65.19;100010.28;5150563;28;20200;-73
2022/10/07 07:31:32;;;;;;;12.50;5.07;;;;;;;16.11;64.75;100027.22;5147092;28;20057;-74
2022/10/07 07:34:22;;;;;;;17.00;6.10;;;;;;;16.49;64.53;100017.16;5161554;28;20520;-74
2022/10/07 07:37:13;;;;;;;15.80;6.13;;;;;;;17.02;63.25;100023.34;5149311;28;20324;-76
2022/10/07 07:40:09;;;;;;;14.18;5.50;;;;;;;17.47;62.03;100022.19;5142973;28;20054;-76
2022/10/07 07:42:59;;;;;;;10.88;6.03;;;;;;;18.25;60.98;100014.59;5153613;28;20042;-76
2022/10/07 07:45:49;;;;;;;21.70;7.10;;;;;;;18.57;58.85;100006.66;5156212;28;20221;-75
2022/10/07 07:48:39;;;;;;;11.57;6.10;;;;;;;18.96;57.95;100012.97;5149074;28;20124;-76
2022/10/07 07:51:31;;;;;;;16.13;5.97;;;;;;;19.37;56.56;100009.28;5151537;28;20113;-76
2022/10/07 07:54:23;;;;;;;12.88;5.97;;;;;;;19.66;55.84;100005.97;5163675;28;20213;-76
2022/10/07 07:57:13;;;;;;;11.77;5.53;;;;;;;20.08;55.78;100008.19;5154931;28;20609;-76
2022/10/07 08:00:05;;;;;;;13.57;5.10;;;;;;;20.11;55.08;100013.22;5167767;28;20136;-75
2022/10/07 08:03:03;;;;;;;14.68;4.97;;;;;;;20.14;56.41;100004.78;5149710;28;20058;-76
2022/10/07 08:05:53;;;;;;;10.38;4.43;;;;;;;20.83;54.82;99985.78;5160027;28;20482;-76
2022/10/07 08:08:45;;;;;;;16.40;4.75;;;;;;;21.07;55.01;99991.88;5155395;28;20125;-76
2022/10/07 08:11:36;;;;;;;12.13;4.22;;;;;;;20.96;54.51;99993.22;5153670;28;20181;-76
2022/10/07 08:14:26;;;;;;;9.82;3.95;;;;;;;21.04;54.09;99995.78;5160939;28;20089;-76
2022/10/07 08:17:16;;;;;;;11.63;4.60;;;;;;;21.27;54.33;99992.97;5157250;28;20181;-75
2022/10/07 08:20:09;;;;;;;8.43;4.07;;;;;;;21.87;52.18;99990.97;5158892;28;20073;-76
2022/10/07 08:23:01;;;;;;;9.80;3.88;;;;;;;21.78;50.86;99981.31;5150675;28;20081;-76
2022/10/07 08:25:58;;;;;;;8.88;4.32;;;;;;;22.15;52.90;99985.66;5148184;28;20512;-76
2022/10/07 08:28:48;;;;;;;10.05;4.18;;;;;;;22.46;50.74;99977.16;5159191;28;20545;-75
2022/10/07 08:31:41;;;;;;;11.82;4.75;;;;;;;21.93;51.67;99984.78;5153982;28;20061;-75
2022/10/07 08:34:31;;;;;;;13.32;4.80;;;;;;;21.94;51.99;99967.56;5152574;28;20069;-75
2022/10/07 08:37:22;;;;;;;8.27;4.72;;;;;;;22.15;51.92;99969.44;5151421;28;20108;-76
2022/10/07 08:40:16;;;;;;;11.80;5.05;;;;;;;22.30;50.17;99972.03;5150178;28;20066;-74
2022/10/07 08:43:08;;;;;;;13.13;4.60;;;;;;;21.63;52.78;99969.75;5161962;28;20472;-75
2022/10/07 08:45:59;;;;;;;10.10;5.07;;;;;;;22.82;49.33;99970.75;5141457;28;20066;-75
2022/10/07 08:48:58;;;;;;;19.90;5.35;;;;;;;22.45;50.27;99964.69;5146860;28;20069;-75
2022/10/07 08:52:08;;;;;;;10.93;4.70;;;;;;;23.11;48.61;99953.44;5145531;28;20129;-76
2022/10/07 08:55:00;;;;;;;13.50;5.15;;;;;;;23.55;48.51;99954.81;5168483;28;20045;-76
2022/10/07 08:57:53;;;;;;;20.38;6.38;;;;;;;23.68;49.16;99956.75;5157178;28;20050;-76
2022/10/07 09:00:53;;;;;;;11.10;5.03;;;;;;;23.74;48.93;99949.66;5155184;28;20139;-76
2022/10/07 09:03:52;;;;;;;9.68;5.25;;;;;;;23.01;50.47;99944.84;5148339;28;20055;-75
2022/10/07 09:06:54;;;;;;;12.65;5.22;;;;;;;23.86;50.03;99945.31;5153423;28;20543;-76
2022/10/07 09:09:56;;;;;;;22.90;5.50;;;;;;;24.42;49.42;99938.66;5163689;28;20062;-76
2022/10/07 09:12:58;;;;;;;17.50;4.85;;;;;;;24.63;46.34;99940.28;5143832;28;20193;-76
2022/10/07 09:16:05;;;;;;;8.02;5.05;;;;;;;24.61;48.25;99935.06;5149139;28;20534;-75
2022/10/07 09:19:02;;;;;;;12.57;4.32;;;;;;;25.33;44.63;99932.31;5143098;28;20064;-76
2022/10/07 09:21:59;;;;;;;11.25;4.03;;;;;;;25.22;45.31;99918.38;5142304;28;20061;-76
2022/10/07 09:25:12;;;;;;;15.57;4.15;;;;;;;25.26;46.55;99921.47;5143696;28;20059;-76
2022/10/07 09:28:02;;;;;;;7.57;3.72;;;;;;;25.34;45.60;99920.41;5145869;28;20061;-76
2022/10/07 09:30:53;;;;;;;11.82;4.30;;;;;;;25.89;41.66;99915.25;5143384;28;20047;-76
2022/10/07 09:33:45;;;;;;;14.40;4.35;;;;;;;24.80;43.90;99909.78;5151088;28;20081;-76
2022/10/07 09:37:16;;;;;;;9.02;4.22;;;;;;;25.03;43.66;99914.69;5147460;28;20043;-76
2022/10/07 09:40:28;;;;;;;11.45;4.00;;;;;;;25.23;44.69;99906.50;5148612;28;20141;-76
2022/10/07 09:43:19;;;;;;;8.38;4.00;;;;;;;25.14;46.02;99902.34;5147259;28;20050;-76
2022/10/07 09:46:46;;;;;;;9.98;4.50;;;;;;;25.30;44.48;99896.41;5150052;28;20050;-76
2022/10/07 09:49:44;;;;;;;7.47;4.28;;;;;;;24.94;44.60;99896.16;5148053;28;20094;-76
2022/10/07 09:52:36;;;;;;;11.15;4.15;;;;;;;25.27;43.20;99899.56;5165147;28;20107;-75
2022/10/07 09:55:41;;;;;;;10.55;4.63;;;;;;;25.58;43.78;99895.19;5161994;28;20244;-78
2022/10/07 09:58:31;;;;;;;9.60;3.85;;;;;;;25.53;44.59;99886.88;5156025;28;20049;-76
2022/10/07 10:01:21;;;;;;;8.35;3.95;;;;;;;25.69;44.95;99891.75;5173080;28;20059;-78
2022/10/07 10:04:19;;;;;;;8.50;3.60;;;;;;;25.77;45.25;99867.03;5152165;28;20517;-77
2022/10/07 10:07:20;;;;;;;13.30;4.20;;;;;;;26.25;42.50;99888.16;5144992;28;20099;-77
2022/10/07 10:10:22;;;;;;;7.05;3.25;;;;;;;25.97;44.49;99890.53;5147184;28;20205;-76
2022/10/07 10:13:24;;;;;;;8.73;3.58;;;;;;;26.15;45.08;99876.97;5160371;28;20437;-76
2022/10/07 10:16:23;;;;;;;10.30;3.40;;;;;;;26.33;42.12;99872.63;5144893;28;20053;-77
2022/10/07 10:19:23;;;;;;;7.60;4.28;;;;;;;26.34;41.76;99866.94;5160960;28;20552;-76
2022/10/07 10:22:28;;;;;;;11.38;3.95;;;;;;;26.07;43.54;99871.84;5153538;28;20144;-76
2022/10/07 10:29:34;;;;;;;10.98;5.50;;;;;;;25.28;44.18;99857.78;5162454;28;20058;-77
2022/10/07 10:32:33;;;;;;;11.50;4.30;;;;;;;25.15;42.91;99848.91;5125900;28;20662;-77
2022/10/07 10:35:28;;;;;;;6.07;3.35;;;;;;;25.11;45.13;99840.34;5117990;28;20047;-76
2022/10/07 10:38:25;;;;;;;11.15;4.07;;;;;;;25.12;44.74;99847.44;5146253;28;20519;-74
2022/10/07 10:41:27;;;;;;;8.23;4.32;;;;;;;24.34;45.09;99848.38;5149736;28;20529;-76
2022/10/07 10:44:52;;;;;;;12.07;4.13;;;;;;;23.96;48.16;99841.97;5145800;28;20102;-76
2022/10/07 10:48:00;;;;;;;12.07;4.18;;;;;;;23.45;47.71;99841.53;5154133;28;20065;-74
2022/10/07 10:51:20;;;;;;;10.25;3.90;;;;;;;23.82;48.82;99831.16;5143337;28;20133;-75
2022/10/07 10:54:47;;;;;;;13.00;4.55;;;;;;;23.79;46.00;99831.56;5165663;28;20046;-75
2022/10/07 10:58:00;;;;;;;15.00;5.57;;;;;;;23.56;47.86;99812.19;5147867;28;20042;-76
2022/10/07 11:01:12;;;;;;;8.75;4.72;;;;;;;23.79;47.23;99815.31;5146946;28;20524;-75
2022/10/07 11:04:21;;;;;;;11.48;4.03;;;;;;;23.32;48.80;99803.63;5148133;28;20050;-75
2022/10/07 11:07:28;;;;;;;6.97;3.80;;;;;;;23.28;48.95;99796.97;5149222;28;20061;-76
2022/10/07 11:10:24;;;;;;;10.75;4.15;;;;;;;23.34;49.89;99806.13;5143996;28;20553;-75
2022/10/07 11:13:32;;;;;;;8.02;4.50;;;;;;;23.25;49.22;99804.69;5149029;28;20537;-76
2022/10/07 11:16:40;;;;;;;10.38;4.38;;;;;;;23.52;47.58;99792.81;5147883;28;20118;-77
2022/10/07 11:19:42;;;;;;;9.05;3.92;;;;;;;23.57;49.06;99790.28;5150966;28;20046;-78
2022/10/07 11:22:41;;;;;;;9.38;4.70;;;;;;;23.45;48.98;99792.81;5149512;28;20049;-76
2022/10/07 11:25:37;;;;;;;11.07;4.60;;;;;;;23.56;48.35;99793.22;5156243;28;20105;-76
2022/10/07 11:28:31;;;;;;;9.90;4.63;;;;;;;23.47;47.29;99789.06;5146782;28;20097;-74
2022/10/07 11:31:31;;;;;;;9.07;5.10;;;;;;;23.20;49.00;99778.22;5147855;28;20058;-73
2022/10/07 11:34:33;;;;;;;13.25;5.40;;;;;;;23.32;49.63;99770.34;5144402;28;20569;-74
2022/10/07 11:37:30;;;;;;;61.88;26.88;;;;;;;23.21;49.05;99766.34;5144295;28;20082;-75
2022/10/07 11:40:21;;;;;;;13.18;6.75;;;;;;;23.44;49.74;99764.09;5160908;28;20042;-76
2022/10/07 11:43:26;;;;;;;10.95;6.05;;;;;;;23.61;49.11;99755.53;5150117;28;20588;-77
2022/10/07 11:46:37;;;;;;;11.00;6.40;;;;;;;22.76;51.02;99749.84;5145080;28;20597;-75
2022/10/07 11:49:39;;;;;;;15.90;5.70;;;;;;;23.32;50.26;99749.50;5146903;28;20065;-77
2022/10/07 11:52:32;;;;;;;14.57;5.78;;;;;;;23.04;48.89;99728.06;5142549;28;20050;-75
2022/10/07 11:55:46;;;;;;;13.32;5.88;;;;;;;23.01;49.87;99743.88;5148729;28;20086;-76
2022/10/07 11:58:43;;;;;;;9.77;5.85;;;;;;;23.16;48.27;99736.41;5145726;28;20418;-75
2022/10/07 12:01:33;;;;;;;8.27;5.35;;;;;;;23.19;48.26;99734.09;5144134;28;20054;-74
2022/10/07 12:04:32;;;;;;;10.75;5.68;;;;;;;22.90;49.59;99724.47;5160489;28;20058;-75
2022/10/07 12:07:41;;;;;;;9.70;5.25;;;;;;;22.87;50.36;99715.94;5144064;28;20425;-77
2022/10/07 12:10:32;;;;;;;14.82;6.85;;;;;;;22.91;50.63;99712.63;5150241;28;20085;-75
2022/10/07 12:13:22;;;;;;;20.73;9.40;;;;;;;22.95;50.95;99713.09;5143509;28;20054;-73
2022/10/07 12:16:22;;;;;;;10.80;6.13;;;;;;;22.88;50.28;99707.66;5143720;28;20485;-71
2022/10/07 12:19:17;;;;;;;10.05;5.90;;;;;;;23.24;48.68;99705.59;5141480;28;20114;-73
2022/10/07 12:22:13;;;;;;;8.88;5.25;;;;;;;23.21;48.13;99701.41;5143269;28;20050;-72
2022/10/07 12:25:28;;;;;;;12.98;5.60;;;;;;;22.93;48.56;99694.34;5148431;28;20078;-74
2022/10/07 12:28:29;;;;;;;7.25;5.57;;;;;;;22.63;50.57;99687.63;5149504;28;20188;-78
2022/10/07 12:31:21;;;;;;;8.90;4.82;;;;;;;22.83;50.81;99693.91;5141020;28;20054;-76
2022/10/07 12:34:20;;;;;;;8.05;4.35;;;;;;;22.91;50.86;99677.50;5143429;28;20046;-75
2022/10/07 12:37:50;;;;;;;11.20;5.82;;;;;;;22.48;51.04;99669.72;5149642;28;20137;-78
2022/10/07 12:40:43;;;;;;;9.15;5.43;;;;;;;22.72;50.69;99668.31;5164722;28;20136;-77
2022/10/07 12:43:36;;;;;;;9.05;5.68;;;;;;;22.72;50.71;99670.19;5150909;28;20051;-77
2022/10/07 12:46:32;;;;;;;12.32;5.95;;;;;;;22.58;51.17;99654.97;5156833;28;20552;-78
2022/10/07 12:49:36;;;;;;;9.82;6.00;;;;;;;22.62;50.41;99675.16;5146270;28;20137;-77
2022/10/07 12:52:49;;;;;;;12.93;6.35;;;;;;;22.81;50.46;99663.50;5154813;28;20046;-78
2022/10/07 12:55:47;;;;;;;10.95;5.43;;;;;;;22.98;49.94;99661.28;5168139;28;20061;-78
2022/10/07 13:02:16;;;;;;;8.95;6.38;;;;;;;22.52;50.38;99654.78;5146792;28;20193;-78
2022/10/07 13:05:38;;;;;;;13.52;6.47;;;;;;;22.37;51.24;99651.41;5156313;28;20429;-77
2022/10/07 13:08:47;;;;;;;14.40;5.70;;;;;;;22.62;50.03;99643.56;5158198;28;20066;-78
2022/10/07 13:12:08;;;;;;;12.65;5.15;;;;;;;22.71;50.50;99646.88;5146167;28;20493;-77
2022/10/07 13:15:28;;;;;;;10.57;6.07;;;;;;;22.44;51.72;99646.00;5149577;28;20497;-77
2022/10/07 13:18:24;;;;;;;11.77;7.15;;;;;;;22.28;50.65;99642.66;5149561;28;20047;-77
2022/10/07 13:21:24;;;;;;;12.48;7.00;;;;;;;22.03;52.78;99633.41;5149186;28;20062;-77
2022/10/07 13:24:22;;;;;;;12.80;7.60;;;;;;;22.20;52.71;99617.69;5145145;28;20078;-78
2022/10/07 13:27:16;;;;;;;12.57;5.80;;;;;;;22.69;51.21;99611.94;5161094;28;20632;-77
2022/10/07 13:30:27;;;;;;;;;;;;;;;22.97;49.88;99622.56;5149879;28;20240;-78
2022/10/07 13:33:25;;;;;;;9.52;6.00;;;;;;;22.74;50.91;99611.31;5167316;28;20288;-77
2022/10/07 13:36:19;;;;;;;11.50;5.97;;;;;;;22.50;52.18;99604.66;5158677;28;20078;-77
2022/10/07 13:39:19;;;;;;;13.77;5.95;;;;;;;22.74;50.17;99589.69;5152570;28;20090;-77
2022/10/07 13:42:10;;;;;;;14.80;6.30;;;;;;;22.60;51.28;99588.03;5151483;28;20106;-77
2022/10/07 13:45:01;;;;;;;17.45;7.43;;;;;;;22.45;51.25;99601.72;5148134;28;20131;-78
2022/10/07 13:47:52;;;;;;;11.63;6.32;;;;;;;21.77;52.15;99591.78;5152104;28;20799;-77
2022/10/07 13:50:43;;;;;;;12.93;6.47;;;;;;;21.86;53.36;99595.13;5144148;28;20091;-76